createdAt,value
2023-05-18T00:03:14.986Z,9.24
2023-05-18T00:07:17.253Z,9.01
2023-05-18T00:11:19.524Z,8.92
2023-05-18T00:15:21.511Z,9.08
2023-05-18T00:19:25.229Z,8.86
2023-05-18T00:23:29.960Z,8.93
2023-05-18T00:27:32.757Z,8.80
2023-05-18T00:31:36.564Z,8.80
2023-05-18T00:35:38.638Z,8.72
2023-05-18T00:39:40.680Z,8.78
2023-05-18T00:43:42.929Z,8.55
2023-05-18T00:47:44.904Z,8.55
2023-05-18T00:51:47.363Z,8.50
2023-05-18T00:55:49.817Z,8.39
2023-05-18T00:59:51.951Z,8.32
2023-05-18T01:03:56.576Z,8.43
2023-05-18T01:07:58.662Z,8.40
2023-05-18T01:12:09.721Z,8.40
2023-05-18T01:16:21.760Z,8.29
2023-05-18T01:20:34.029Z,8.48
2023-05-18T01:24:43.542Z,8.45
2023-05-18T01:28:46.992Z,8.56
2023-05-18T01:32:49.394Z,8.40
2023-05-18T01:36:51.585Z,8.48
2023-05-18T01:41:13.951Z,8.59
2023-05-18T01:45:25.615Z,8.54
2023-05-18T01:49:43.122Z,8.56
2023-05-18T01:53:52.969Z,8.54
2023-05-18T01:57:57.459Z,8.44
2023-05-18T02:02:01.468Z,8.27
2023-05-18T02:06:03.898Z,8.25
2023-05-18T02:10:07.492Z,8.35
2023-05-18T02:14:09.604Z,8.21
2023-05-18T02:18:11.680Z,8.04
2023-05-18T02:22:13.810Z,7.99
2023-05-18T02:26:16.856Z,7.94
2023-05-18T02:30:25.008Z,7.91
2023-05-18T02:34:27.536Z,7.78
2023-05-18T02:38:32.767Z,7.76
2023-05-18T02:42:35.090Z,7.46
2023-05-18T02:46:37.208Z,7.48
2023-05-18T02:50:44.040Z,7.42
2023-05-18T02:54:46.556Z,7.33
2023-05-18T02:58:58.313Z,7.42
2023-05-18T03:03:15.799Z,7.30
2023-05-18T03:07:21.098Z,7.36
2023-05-18T03:11:24.462Z,7.43
2023-05-18T03:15:27.354Z,7.59
2023-05-18T03:19:29.824Z,7.54
2023-05-18T03:23:31.908Z,7.55
2023-05-18T03:27:34.464Z,7.64
2023-05-18T03:31:37.830Z,7.75
2023-05-18T03:35:40.865Z,7.78
2023-05-18T03:39:44.019Z,7.91
2023-05-18T03:43:46.927Z,7.95
2023-05-18T03:47:49.682Z,7.98
2023-05-18T03:51:54.382Z,8.07
2023-05-18T03:55:56.985Z,8.12
2023-05-18T03:59:59.511Z,8.31
2023-05-18T04:04:01.865Z,8.11
2023-05-18T04:08:07.592Z,8.32
2023-05-18T04:12:10.237Z,8.35
2023-05-18T04:16:13.499Z,8.61
2023-05-18T04:20:17.251Z,8.58
2023-05-18T04:24:21.447Z,8.52
2023-05-18T04:28:23.664Z,8.37
2023-05-18T04:32:28.335Z,8.46
2023-05-18T04:36:31.165Z,8.74
2023-05-18T04:40:34.012Z,8.94
2023-05-18T04:44:38.602Z,8.96
2023-05-18T04:48:41.004Z,8.86
2023-05-18T04:52:48.881Z,8.87
2023-05-18T04:56:53.117Z,8.86
2023-05-18T05:00:55.201Z,8.95
2023-05-18T05:04:57.526Z,8.84
2023-05-18T05:08:59.768Z,9.11
2023-05-18T05:13:01.891Z,9.02
2023-05-18T05:17:03.985Z,8.95
2023-05-18T05:21:06.464Z,8.99
2023-05-18T05:25:10.085Z,9.23
2023-05-18T05:29:12.181Z,9.32
2023-05-18T05:33:15.326Z,9.40
2023-05-18T05:37:18.901Z,9.62
2023-05-18T05:41:22.720Z,9.73
2023-05-18T05:45:28.419Z,9.63
2023-05-18T05:49:33.415Z,9.64
2023-05-18T05:53:35.935Z,9.80
2023-05-18T05:57:42.621Z,9.84
2023-05-18T06:01:45.250Z,9.88
2023-05-18T06:05:47.361Z,10.19
2023-05-18T06:09:50.870Z,10.11
2023-05-18T06:13:53.652Z,10.15
2023-05-18T06:17:56.027Z,10.20
2023-05-18T06:21:58.570Z,10.05
2023-05-18T06:26:03.157Z,10.14
2023-05-18T06:30:22.544Z,10.15
2023-05-18T06:34:50.629Z,10.21
2023-05-18T06:38:52.738Z,10.26
2023-05-18T06:42:54.903Z,10.37
2023-05-18T06:47:00.905Z,10.50
2023-05-18T06:51:05.321Z,10.53
2023-05-18T06:55:08.062Z,10.47
2023-05-18T06:59:10.464Z,10.56
2023-05-18T07:03:12.798Z,10.64
2023-05-18T07:07:16.781Z,10.66
2023-05-18T07:11:18.769Z,10.86
2023-05-18T07:15:20.761Z,10.82
2023-05-18T07:19:23.007Z,10.72
2023-05-18T07:23:25.445Z,10.86
2023-05-18T07:27:28.092Z,10.95
2023-05-18T07:31:30.157Z,11.02
2023-05-18T07:35:33.282Z,11.03
2023-05-18T07:39:35.741Z,11.22
2023-05-18T07:43:38.014Z,11.12
2023-05-18T07:47:40.685Z,11.22
2023-05-18T07:51:42.849Z,11.41
2023-05-18T07:55:45.676Z,11.48
2023-05-18T07:59:47.750Z,11.24
2023-05-18T08:03:49.506Z,11.47
2023-05-18T08:07:52.000Z,11.56
2023-05-18T08:11:54.212Z,11.54
2023-05-18T08:16:10.347Z,11.66
2023-05-18T08:20:13.655Z,11.86
2023-05-18T08:24:15.746Z,12.03
2023-05-18T08:28:18.018Z,12.25
2023-05-18T08:32:20.219Z,12.41
2023-05-18T08:36:22.194Z,12.25
2023-05-18T08:40:36.538Z,12.56
2023-05-18T08:44:45.410Z,12.48
2023-05-18T08:48:51.739Z,12.44
2023-05-18T08:52:56.203Z,12.34
2023-05-18T08:56:59.591Z,12.68
2023-05-18T09:01:03.955Z,12.75
2023-05-18T09:05:07.562Z,12.92
2023-05-18T09:09:10.564Z,13.03
2023-05-18T09:13:13.752Z,12.94
2023-05-18T09:17:15.895Z,12.87
2023-05-18T09:21:17.929Z,12.96
2023-05-18T09:25:21.202Z,12.99
2023-05-18T09:29:24.386Z,13.04
2023-05-18T09:33:32.501Z,12.89
2023-05-18T09:37:35.210Z,13.05
2023-05-18T09:41:39.915Z,13.09
2023-05-18T09:45:47.098Z,13.32
2023-05-18T09:49:49.141Z,13.43
2023-05-18T09:53:58.839Z,13.36
2023-05-18T09:58:03.380Z,13.52
2023-05-18T10:02:08.623Z,13.75
2023-05-18T10:06:14.943Z,13.44
2023-05-18T10:10:20.038Z,13.35
2023-05-18T10:14:29.174Z,13.45
2023-05-18T10:18:39.093Z,13.88
2023-05-18T10:22:42.086Z,13.72
2023-05-18T10:26:45.215Z,13.88
2023-05-18T10:30:48.046Z,13.93
2023-05-18T10:34:52.846Z,14.07
2023-05-18T10:38:57.169Z,13.93
2023-05-18T10:43:02.020Z,14.06
2023-05-18T10:47:06.362Z,14.19
2023-05-18T10:51:08.549Z,14.01
2023-05-18T10:55:10.819Z,14.05
2023-05-18T10:59:14.251Z,14.19
2023-05-18T11:03:18.048Z,14.40
2023-05-18T11:07:21.771Z,14.33
2023-05-18T11:11:29.943Z,14.51
2023-05-18T11:15:59.386Z,14.50
2023-05-18T11:20:07.918Z,14.69
2023-05-18T11:24:26.015Z,14.79
2023-05-18T11:28:28.402Z,14.87
2023-05-18T11:32:33.000Z,14.77
2023-05-18T11:36:44.801Z,14.65
2023-05-18T11:40:51.207Z,14.76
2023-05-18T11:44:55.658Z,14.86
2023-05-18T11:49:03.455Z,14.98
2023-05-18T11:53:06.024Z,14.85
2023-05-18T11:57:09.883Z,14.98
2023-05-18T12:01:14.423Z,15.00
2023-05-18T12:05:17.412Z,15.21
2023-05-18T12:09:20.085Z,15.38
2023-05-18T12:13:23.158Z,15.11
2023-05-18T12:17:41.490Z,15.47
2023-05-18T12:21:43.848Z,15.60
2023-05-18T12:25:45.930Z,15.55
2023-05-18T12:29:47.963Z,15.39
2023-05-18T12:33:51.296Z,15.54
2023-05-18T12:37:59.933Z,15.88
2023-05-18T12:42:15.321Z,15.57
2023-05-18T12:46:17.738Z,15.34
2023-05-18T12:50:24.977Z,15.46
2023-05-18T12:54:30.259Z,15.37
2023-05-18T12:58:32.944Z,15.34
2023-05-18T13:02:37.930Z,15.59
2023-05-18T13:06:41.074Z,15.38
2023-05-18T13:10:44.226Z,15.29
2023-05-18T13:14:46.988Z,15.16
2023-05-18T13:18:56.098Z,15.30
2023-05-18T13:23:01.965Z,15.15
2023-05-18T13:27:04.148Z,15.30
2023-05-18T13:31:06.198Z,15.01
2023-05-18T13:35:08.969Z,14.74
2023-05-18T13:39:11.636Z,14.90
2023-05-18T13:43:14.114Z,14.59
2023-05-18T13:47:16.629Z,14.51
2023-05-18T13:51:18.836Z,14.41
2023-05-18T13:55:21.103Z,14.48
2023-05-18T13:59:23.452Z,14.50
2023-05-18T14:03:25.599Z,14.61
2023-05-18T14:07:27.750Z,14.66
2023-05-18T14:11:29.932Z,14.67
2023-05-18T14:15:32.077Z,14.59
2023-05-18T14:19:34.135Z,14.36
2023-05-18T14:23:36.235Z,14.38
2023-05-18T14:27:38.313Z,14.31
2023-05-18T14:31:42.453Z,14.31
2023-05-18T14:35:44.595Z,14.22
2023-05-18T14:39:46.969Z,14.15
2023-05-18T14:43:51.055Z,14.12
2023-05-18T14:47:53.213Z,14.04
2023-05-18T14:51:55.406Z,14.14
2023-05-18T14:55:57.593Z,14.08
2023-05-18T15:00:00.661Z,14.20
2023-05-18T15:04:03.039Z,14.04
2023-05-18T15:08:05.431Z,14.02
2023-05-18T15:12:07.773Z,13.96
2023-05-18T15:16:11.830Z,14.20
2023-05-18T15:20:13.982Z,13.94
2023-05-18T15:24:16.090Z,14.03
2023-05-18T15:28:18.332Z,14.04
2023-05-18T15:32:20.921Z,14.00
2023-05-18T15:36:23.995Z,14.00
2023-05-18T15:40:26.201Z,14.03
2023-05-18T15:44:29.573Z,13.91
2023-05-18T15:48:32.035Z,14.04
2023-05-18T15:52:34.301Z,13.88
2023-05-18T15:56:36.592Z,13.99
2023-05-18T16:00:38.891Z,14.03
2023-05-18T16:04:41.150Z,13.94
2023-05-18T16:08:45.921Z,14.04
2023-05-18T16:12:48.273Z,14.01
2023-05-18T16:16:50.880Z,14.09
2023-05-18T16:20:53.427Z,13.92
2023-05-18T16:24:57.752Z,13.93
2023-05-18T16:29:00.548Z,13.88
2023-05-18T16:33:02.707Z,13.85
2023-05-18T16:37:05.363Z,13.83
2023-05-18T16:41:07.834Z,13.76
2023-05-18T16:45:10.499Z,13.56
2023-05-18T16:49:12.898Z,13.64
2023-05-18T16:53:15.472Z,13.58
2023-05-18T16:57:17.733Z,13.55
2023-05-18T17:05:28.610Z,13.39
2023-05-18T17:09:31.186Z,13.30
2023-05-18T17:13:33.797Z,13.33
2023-05-18T17:17:35.936Z,13.34
2023-05-18T17:21:37.622Z,13.32
2023-05-18T17:25:39.744Z,13.30
2023-05-18T17:29:41.782Z,13.24
2023-05-18T17:33:47.153Z,13.22
2023-05-18T17:37:49.317Z,13.17
2023-05-18T17:41:54.048Z,13.01
2023-05-18T17:45:56.405Z,13.06
2023-05-18T17:49:58.536Z,13.01
2023-05-18T17:54:00.748Z,13.01
2023-05-18T17:58:02.853Z,12.99
2023-05-18T18:02:05.784Z,12.91
2023-05-18T18:06:07.964Z,12.87
2023-05-18T18:10:10.399Z,12.75
2023-05-18T18:14:16.453Z,12.74
2023-05-18T18:18:18.492Z,12.71
2023-05-18T18:22:20.607Z,12.72
2023-05-18T18:26:22.793Z,12.64
2023-05-18T18:30:25.286Z,12.59
2023-05-18T18:34:27.409Z,12.57
2023-05-18T18:38:29.687Z,12.57
2023-05-18T18:42:31.706Z,12.58
2023-05-18T18:46:34.368Z,12.50
2023-05-18T18:50:36.509Z,12.49
2023-05-18T18:54:38.694Z,12.39
2023-05-18T18:58:41.405Z,12.43
2023-05-18T19:02:43.532Z,12.46
2023-05-18T19:06:46.313Z,12.45
2023-05-18T19:10:48.673Z,12.48
2023-05-18T19:14:50.791Z,12.43
2023-05-18T19:18:52.951Z,12.38
2023-05-18T19:22:55.342Z,12.39
2023-05-18T19:26:57.556Z,12.36
2023-05-18T19:30:59.601Z,12.31
2023-05-18T19:35:01.652Z,12.33
2023-05-18T19:39:04.898Z,12.30
2023-05-18T19:43:07.060Z,12.41
2023-05-18T19:47:09.077Z,12.35
2023-05-18T19:51:11.309Z,12.41
2023-05-18T19:55:13.831Z,12.36
2023-05-18T19:59:15.930Z,12.31
2023-05-18T20:03:19.894Z,12.38
2023-05-18T20:07:22.534Z,12.44
2023-05-18T20:11:24.867Z,12.48
2023-05-18T20:15:28.042Z,12.63
2023-05-18T20:19:30.583Z,12.54
2023-05-18T20:23:32.775Z,12.64
2023-05-18T20:27:34.907Z,12.53
2023-05-18T20:31:37.287Z,12.54
2023-05-18T20:35:40.108Z,12.75
2023-05-18T20:39:50.340Z,12.66
2023-05-18T20:43:52.911Z,12.71
2023-05-18T20:47:56.867Z,12.67
2023-05-18T20:51:59.142Z,12.70
2023-05-18T20:56:01.527Z,12.72
2023-05-18T21:00:05.016Z,12.72
2023-05-18T21:04:06.886Z,12.66
2023-05-18T21:08:09.659Z,12.64
2023-05-18T21:12:11.511Z,12.69
2023-05-18T21:16:13.899Z,12.68
2023-05-18T21:20:16.301Z,12.60
2023-05-18T21:24:18.471Z,12.53
2023-05-18T21:28:20.742Z,12.49
2023-05-18T21:32:24.272Z,12.47
2023-05-18T21:36:34.304Z,12.44
2023-05-18T21:40:36.727Z,12.42
2023-05-18T21:44:38.994Z,12.35
2023-05-18T21:48:41.244Z,12.31
2023-05-18T21:52:43.500Z,12.27
2023-05-18T21:56:46.113Z,12.15
2023-05-18T22:00:48.446Z,12.08
2023-05-18T22:04:50.710Z,12.10
2023-05-18T22:08:52.867Z,12.14
2023-05-18T22:12:55.244Z,12.10
2023-05-18T22:16:57.445Z,12.08
2023-05-18T22:20:59.790Z,12.03
2023-05-18T22:25:02.052Z,12.01
2023-05-18T22:29:04.288Z,11.92
2023-05-18T22:33:06.700Z,11.90
2023-05-18T22:37:09.031Z,11.82
2023-05-18T22:41:11.187Z,11.81
2023-05-18T22:45:14.071Z,11.81
2023-05-18T22:49:16.736Z,11.79
2023-05-18T22:53:18.842Z,11.78
2023-05-18T22:57:21.017Z,11.62
2023-05-18T23:01:23.439Z,11.70
2023-05-18T23:05:26.705Z,11.58
2023-05-18T23:09:30.841Z,11.65
2023-05-18T23:13:33.195Z,11.57
2023-05-18T23:17:38.966Z,11.65
2023-05-18T23:21:41.448Z,11.69
2023-05-18T23:25:43.745Z,11.63
2023-05-18T23:29:46.340Z,11.52
2023-05-18T23:33:49.038Z,11.57
2023-05-18T23:37:53.660Z,11.55
2023-05-18T23:41:59.904Z,11.56
2023-05-18T23:46:02.447Z,11.55
2023-05-18T23:50:06.308Z,11.59
2023-05-18T23:54:09.416Z,11.61
2023-05-18T23:58:12.017Z,11.61
